Dallas Fort Worth International Airport
KDFW : now visible

Aeroporto :











RITROVATECI SU...

 
LOGIN :

Iscrizione | Disclaimer

   EN    FR    IT 

 









Sommario :    VFR   VFR Marginale   IFR   IFR Intensivo   IFR Molto Intensivo
Visibilità : 
Base nubi : 
>= 8 km
>= 3000ft
5 / 8 km
1000 / 3000 ft
1500m / 5 km
500 / 1000 ft
800 / 1500m
200 / 500 ft
< 800m
< 200 ft
Simboli :   Temporali  Nebbia  Neve Forte  Precipitazioni Forti  Vento > 20 kt






- Altitudine del aeroporto : 607 ft
- Codice IATA : DFW


KDFW - Dallas Fort Worth International

ULTIMO METAR :
  • 201053Z 03016KT 8SM -RA BKN008 BKN011 OVC027 05/04 A3031 RMK AO2 SLP265 P0001 T00500044

METARs OBSOLETI :
  • 201040Z 03011KT 10SM -RA BKN007 BKN011 OVC030 05/04 A3031 RMK AO2 P0001 T00500044
  • 201004Z 01013KT 6SM -RA BR SCT007 BKN019 OVC027 05/04 A3031 RMK AO2 P0001 T00500044
  • 200917Z 02009KT 10SM -RA SCT008 OVC011 06/04 A3028 RMK AO2 P0000 T00560044
  • 200853Z 35009KT 10SM -RA BKN008 OVC012 06/05 A3029 RMK AO2 SLP256 P0002 60014 T00560050 53010

TAF KDFW
Valido dal 20 a 09 ore il 21 a 12 ore UTC


200859Z 2009/2112 05007KT 6SM -SHRA OVC015
TEMPO 2009/2012 BKN008
FM201300 02013KT P6SM OVC025
FM201800 02014KT P6SM OVC050



MetMap, La meteo Aeronautica in un colpo d'occhio ! - Copyright ORBIFLY Dicembre 2007 - Disclaimer

ORBIFLY MET'MAP TEAM :

Programmazione e sviluppo : Alexandra Zaïnal
Concezione : Baudouin d'Aumeries
Aiuto per la programmazione : Marc-Olivier Méhu
Supporto tecnico e logistico : Manuel Goepfert
Aiuto per la traduzione : Arnaldo La Scala

Contatto : metmap@orbifly.com




FONTI E CREDITI :

   NOAA       Earth
Advisory